Time;durP1;ratioP1;P1;durP2;ratioP2;P2;SDS_P1;SDS_P2;PMS_P1;PMS_P2;Temp;Humidity;BMP_temperature;BMP_pressure;BME280_temperature;BME280_humidity;BME280_pressure;Samples;Min_cycle;Max_cycle;Signal;HPM_P1;HPM_P2
2022/06/30 00:02:43;;;;;;;6.45;5.82;;;;;;;21.09;65.50;98733.41;5162886;28;20053;-72
2022/06/30 00:05:34;;;;;;;13.55;6.40;;;;;;;21.08;65.64;98718.28;5165173;28;20049;-71
2022/06/30 00:08:24;;;;;;;10.77;6.97;;;;;;;21.14;65.72;98722.81;5169232;28;20065;-72
2022/06/30 00:11:14;;;;;;;10.23;6.75;;;;;;;21.03;66.45;98728.91;5174784;28;20053;-72
2022/06/30 00:14:04;;;;;;;14.57;7.25;;;;;;;20.96;65.80;98728.97;5163793;28;20050;-74
2022/06/30 00:16:55;;;;;;;14.07;6.75;;;;;;;20.91;65.97;98719.88;5163085;28;20082;-72
2022/06/30 00:19:45;;;;;;;10.63;6.38;;;;;;;20.91;66.27;98733.34;5171767;28;20135;-71
2022/06/30 00:22:35;;;;;;;8.23;6.53;;;;;;;20.96;64.96;98728.09;5162899;28;20172;-72
2022/06/30 00:25:25;;;;;;;10.07;7.80;;;;;;;21.13;66.65;98720.34;5170814;28;20634;-72
2022/06/30 00:28:18;;;;;;;11.73;7.50;;;;;;;21.02;66.19;98719.16;5164326;28;20049;-72
2022/06/30 00:31:08;;;;;;;9.00;6.95;;;;;;;21.17;65.54;98729.63;5165918;28;20072;-74
2022/06/30 00:33:58;;;;;;;11.55;6.15;;;;;;;21.10;65.47;98725.13;5161716;28;20050;-71
2022/06/30 00:36:49;;;;;;;9.35;6.72;;;;;;;20.99;65.44;98724.97;5164915;28;20065;-74
2022/06/30 00:39:39;;;;;;;11.07;7.15;;;;;;;21.04;65.59;98731.38;5164388;28;20492;-72
2022/06/30 00:42:30;;;;;;;9.63;7.05;;;;;;;21.01;66.03;98725.59;5166386;28;20544;-75
2022/06/30 00:45:20;;;;;;;9.07;6.60;;;;;;;20.82;66.12;98727.38;5165511;28;20042;-74
2022/06/30 00:48:11;;;;;;;10.63;7.00;;;;;;;20.81;65.31;98726.53;5165270;28;20046;-72
2022/06/30 00:51:04;;;;;;;13.63;6.65;;;;;;;20.57;67.37;98703.88;5161841;28;20076;-71
2022/06/30 00:53:56;;;;;;;12.23;6.80;;;;;;;20.71;66.02;98715.41;5169792;28;20050;-78
2022/06/30 00:56:47;;;;;;;10.40;6.30;;;;;;;20.64;66.60;98718.16;5162726;28;20054;-71
2022/06/30 00:59:40;;;;;;;11.20;6.90;;;;;;;20.73;66.80;98717.88;5166712;28;20054;-74
2022/06/30 01:02:31;;;;;;;13.50;6.78;;;;;;;20.69;66.39;98722.88;5160962;28;20125;-74
2022/06/30 01:05:24;;;;;;;11.30;7.25;;;;;;;20.71;67.11;98725.38;5161673;28;20046;-73
2022/06/30 01:08:16;;;;;;;10.60;7.57;;;;;;;20.67;67.20;98718.75;5160981;28;20046;-75
2022/06/30 01:14:18;;;;;;;11.82;8.13;;;;;;;20.72;68.57;98716.22;5142210;28;20063;-73
2022/06/30 01:17:10;;;;;;;14.23;8.10;;;;;;;20.80;67.28;98708.72;5141757;28;20082;-74
2022/06/30 01:20:01;;;;;;;14.90;8.90;;;;;;;20.71;67.45;98693.84;5141949;28;20121;-75
2022/06/30 01:22:51;;;;;;;13.50;8.07;;;;;;;20.71;68.12;98695.72;5153397;28;20081;-74
2022/06/30 01:25:41;;;;;;;15.82;7.95;;;;;;;20.62;67.24;98690.59;5161499;28;20125;-74
2022/06/30 01:28:30;;;;;;;10.57;8.07;;;;;;;20.57;67.33;98692.28;5160799;28;20098;-75
2022/06/30 01:31:22;;;;;;;19.15;7.97;;;;;;;20.45;68.24;98693.97;5161114;28;20670;-74
2022/06/30 01:34:13;;;;;;;12.30;8.35;;;;;;;20.45;69.25;98702.88;5141570;28;20141;-73
2022/06/30 01:37:04;;;;;;;10.30;7.88;;;;;;;20.40;68.96;98690.06;5141496;28;20073;-73
2022/06/30 01:39:54;;;;;;;12.93;8.27;;;;;;;20.38;69.50;98694.81;5143682;28;20061;-73
2022/06/30 01:42:44;;;;;;;12.18;8.05;;;;;;;20.56;67.46;98688.78;5156316;28;20163;-72
2022/06/30 01:45:35;;;;;;;11.15;8.27;;;;;;;20.32;69.58;98689.47;5165366;28;20743;-72
2022/06/30 01:48:25;;;;;;;17.55;8.15;;;;;;;20.51;68.01;98688.59;5165699;28;20120;-72
2022/06/30 01:51:15;;;;;;;12.55;8.23;;;;;;;20.59;67.69;98692.88;5165316;28;20428;-73
2022/06/30 01:54:08;;;;;;;16.63;7.95;;;;;;;20.50;67.72;98686.91;5145593;28;20057;-74
2022/06/30 01:56:58;;;;;;;17.02;9.05;;;;;;;20.45;68.84;98700.19;5145650;28;20062;-72
2022/06/30 01:59:49;;;;;;;15.85;9.10;;;;;;;20.17;68.94;98687.88;5154012;28;20133;-72
2022/06/30 02:02:39;;;;;;;16.52;7.93;;;;;;;20.39;67.40;98699.16;5144504;28;20047;-72
2022/06/30 02:05:30;;;;;;;12.50;7.93;;;;;;;20.18;67.30;98689.53;5145128;28;20133;-72
2022/06/30 02:08:20;;;;;;;19.50;8.80;;;;;;;20.09;68.12;98685.41;5152784;28;20126;-72
2022/06/30 02:11:11;;;;;;;12.80;7.95;;;;;;;20.06;68.00;98685.84;5143576;28;20164;-72
2022/06/30 02:14:00;;;;;;;11.25;7.80;;;;;;;20.05;67.83;98683.38;5144459;28;20421;-72
2022/06/30 02:16:50;;;;;;;10.32;7.25;;;;;;;20.12;67.71;98689.56;5144973;28;20129;-72
2022/06/30 02:19:40;;;;;;;13.30;8.00;;;;;;;19.98;67.69;98687.97;5143485;23;20050;-68
2022/06/30 02:22:30;;;;;;;16.02;7.55;;;;;;;19.94;68.30;98682.16;5123798;29;20177;-69
2022/06/30 02:25:22;;;;;;;15.32;7.60;;;;;;;19.89;68.00;98673.91;5124756;29;20070;-68
2022/06/30 02:28:12;;;;;;;9.45;8.05;;;;;;;19.83;69.00;98669.34;5124282;28;20146;-68
2022/06/30 02:31:02;;;;;;;9.52;7.32;;;;;;;19.79;70.25;98684.28;5103994;29;20051;-69
2022/06/30 02:33:53;;;;;;;14.25;7.70;;;;;;;19.79;69.24;98681.59;5104372;29;20091;-69
2022/06/30 02:36:43;;;;;;;11.55;7.60;;;;;;;19.78;68.85;98678.06;5104364;29;20124;-69
2022/06/30 02:39:34;;;;;;;20.73;7.80;;;;;;;19.91;68.63;98687.97;5120318;28;20129;-70
2022/06/30 02:42:24;;;;;;;28.08;8.27;;;;;;;19.76;69.00;98693.59;5143483;28;20475;-71
2022/06/30 02:45:15;;;;;;;14.60;8.23;;;;;;;19.59;69.12;98693.16;5144433;28;20421;-70
2022/06/30 02:48:05;;;;;;;11.25;7.60;;;;;;;19.60;68.75;98681.41;5144155;28;20425;-69
2022/06/30 02:50:55;;;;;;;16.58;7.32;;;;;;;19.36;68.49;98669.41;5124257;28;20057;-69
2022/06/30 02:53:45;;;;;;;14.65;7.65;;;;;;;19.58;68.36;98680.78;5123716;29;20513;-69
2022/06/30 02:56:36;;;;;;;14.13;7.32;;;;;;;19.51;68.11;98674.56;5124045;29;20047;-70
2022/06/30 02:59:26;;;;;;;17.83;8.07;;;;;;;19.54;68.63;98684.09;5130742;28;20066;-70
2022/06/30 03:02:17;;;;;;;16.35;8.57;;;;;;;19.52;69.07;98688.84;5134035;28;20440;-69
2022/06/30 03:05:08;;;;;;;14.52;8.13;;;;;;;19.55;68.06;98683.06;5122986;29;20461;-71
2022/06/30 03:07:58;;;;;;;12.77;8.57;;;;;;;19.43;68.90;98678.28;5127010;28;20528;-69
2022/06/30 03:10:49;;;;;;;18.52;8.35;;;;;;;19.45;68.98;98678.09;5128792;28;20144;-70
2022/06/30 03:13:40;;;;;;;24.73;9.27;;;;;;;19.43;68.24;98682.84;5142527;28;20061;-70
2022/06/30 03:16:29;;;;;;;11.98;8.80;;;;;;;19.39;68.45;98689.69;5143614;28;20390;-71
2022/06/30 03:19:20;;;;;;;16.02;8.57;;;;;;;19.46;68.49;98691.31;5143679;28;20109;-70
2022/06/30 03:22:10;;;;;;;21.23;9.38;;;;;;;19.19;68.30;98665.50;5134664;28;20051;-70
2022/06/30 03:25:00;;;;;;;23.25;9.57;;;;;;;19.32;68.93;98684.31;5123714;29;20552;-71
2022/06/30 03:27:50;;;;;;;13.23;8.82;;;;;;;19.40;68.94;98694.00;5123187;29;20386;-70
2022/06/30 03:30:41;;;;;;;20.17;9.95;;;;;;;19.27;69.39;98694.03;5121967;29;20055;-70
2022/06/30 03:33:31;;;;;;;22.63;9.35;;;;;;;19.04;69.38;98695.28;5139709;28;20051;-70
2022/06/30 03:36:22;;;;;;;15.93;9.60;;;;;;;19.08;69.47;98696.50;5143412;28;20057;-71
2022/06/30 03:39:12;;;;;;;17.50;9.32;;;;;;;19.13;68.62;98685.97;5143117;28;20109;-70
2022/06/30 03:42:03;;;;;;;15.48;10.07;;;;;;;19.11;69.61;98697.97;5137173;28;20513;-69
2022/06/30 03:44:53;;;;;;;21.75;9.80;;;;;;;18.98;69.67;98696.09;5123257;29;20121;-70
2022/06/30 03:47:43;;;;;;;17.70;8.88;;;;;;;19.02;69.66;98686.59;5122644;29;20062;-71
2022/06/30 03:50:34;;;;;;;20.75;9.73;;;;;;;18.92;69.65;98680.78;5121641;29;20188;-70
2022/06/30 03:53:24;;;;;;;17.25;8.68;;;;;;;18.95;69.01;98688.44;5136513;28;20196;-70
2022/06/30 03:56:14;;;;;;;19.95;9.48;;;;;;;18.97;69.06;98686.34;5142764;28;20502;-70
2022/06/30 03:59:04;;;;;;;15.25;9.35;;;;;;;18.94;68.93;98681.38;5142948;28;20055;-68
2022/06/30 04:01:54;;;;;;;19.65;9.25;;;;;;;18.91;68.91;98679.97;5128973;28;20421;-69
2022/06/30 04:04:45;;;;;;;21.73;8.68;;;;;;;18.92;69.48;98683.47;5141720;28;20081;-70
2022/06/30 04:07:41;;;;;;;15.10;9.07;;;;;;;19.11;69.58;98688.03;5142406;28;20439;-70
2022/06/30 04:10:30;;;;;;;16.25;9.35;;;;;;;19.11;69.15;98676.47;5142361;28;20063;-70
2022/06/30 04:13:21;;;;;;;27.65;10.10;;;;;;;18.93;69.76;98679.75;5141499;28;20352;-70
2022/06/30 04:16:11;;;;;;;11.07;8.43;;;;;;;18.92;69.13;98678.09;5141267;28;20049;-70
2022/06/30 04:19:02;;;;;;;13.00;9.38;;;;;;;18.87;70.52;98670.63;5142631;28;20057;-70
2022/06/30 04:21:52;;;;;;;20.25;9.68;;;;;;;19.06;69.54;98690.50;5138558;28;20373;-71
2022/06/30 04:24:43;;;;;;;15.80;8.98;;;;;;;19.14;68.72;98684.94;5122611;29;20063;-71
2022/06/30 04:27:33;;;;;;;18.73;9.82;;;;;;;19.13;69.28;98671.69;5122076;29;20091;-71
2022/06/30 04:33:32;;;;;;;23.95;10.07;;;;;;;19.17;69.39;98671.09;5137126;28;20061;-69
2022/06/30 04:36:22;;;;;;;16.90;9.52;;;;;;;19.31;68.42;98685.34;5142397;28;20050;-71
2022/06/30 04:39:12;;;;;;;18.38;9.55;;;;;;;19.38;69.29;98690.72;5142032;28;20054;-70
2022/06/30 04:42:02;;;;;;;21.52;12.05;;;;;;;19.42;71.30;98692.78;5130574;28;20090;-69
2022/06/30 04:44:52;;;;;;;16.27;9.82;;;;;;;19.51;69.25;98698.78;5142562;28;20517;-70
2022/06/30 04:47:43;;;;;;;17.92;11.73;;;;;;;19.37;71.31;98681.84;5141959;28;20523;-70
2022/06/30 04:50:34;;;;;;;18.05;10.82;;;;;;;19.61;70.10;98688.41;5154612;28;20149;-70
2022/06/30 04:53:24;;;;;;;22.60;12.35;;;;;;;19.69;70.04;98685.53;5126466;28;20434;-70
2022/06/30 04:56:15;;;;;;;23.33;14.50;;;;;;;20.11;69.93;98683.34;5122393;29;20098;-71
2022/06/30 04:59:05;;;;;;;26.67;14.80;;;;;;;20.53;69.48;98686.50;5121926;29;20102;-70
2022/06/30 05:01:55;;;;;;;28.98;15.65;;;;;;;20.43;69.86;98675.34;5121808;28;20081;-71
2022/06/30 05:04:46;;;;;;;24.02;16.30;;;;;;;20.34;70.16;98665.88;5114996;29;20438;-71
2022/06/30 05:07:36;;;;;;;24.17;14.80;;;;;;;20.56;69.56;98667.22;5123285;28;20058;-74
2022/06/30 05:10:26;;;;;;;20.98;13.13;;;;;;;20.57;69.26;98670.75;5133119;28;20065;-71
2022/06/30 05:13:16;;;;;;;22.80;13.55;;;;;;;20.52;69.08;98667.84;5117591;28;20051;-74
2022/06/30 05:16:07;;;;;;;16.88;12.23;;;;;;;20.56;69.23;98672.63;5120324;29;20048;-73
2022/06/30 05:18:58;;;;;;;15.75;11.73;;;;;;;20.51;69.18;98675.13;5118922;28;20099;-73
2022/06/30 05:21:47;;;;;;;17.45;11.40;;;;;;;20.57;69.32;98682.34;5119401;28;20058;-71
2022/06/30 05:27:47;;;;;;;17.70;11.65;;;;;;;20.80;68.75;98689.88;5133687;28;20078;-71
2022/06/30 05:30:38;;;;;;;17.10;10.73;;;;;;;20.80;68.35;98689.06;5119735;28;20193;-70
2022/06/30 05:33:29;;;;;;;16.77;10.65;;;;;;;20.87;68.23;98687.94;5121220;29;20517;-73
2022/06/30 05:36:19;;;;;;;15.32;11.30;;;;;;;21.01;68.22;98685.97;5120380;29;20529;-72
2022/06/30 05:39:10;;;;;;;17.60;11.13;;;;;;;21.31;67.48;98674.56;5121463;29;20050;-71
2022/06/30 05:42:01;;;;;;;16.95;10.88;;;;;;;21.54;67.05;98680.19;5119427;28;20047;-71
2022/06/30 05:44:51;;;;;;;16.48;10.35;;;;;;;21.56;67.35;98677.28;5120118;29;20082;-71
2022/06/30 05:47:50;;;;;;;16.88;10.82;;;;;;;21.71;66.55;98683.13;5119609;29;20050;-72
2022/06/30 05:50:40;;;;;;;23.63;10.82;;;;;;;21.63;66.58;98666.41;5120349;29;20062;-72
2022/06/30 05:53:30;;;;;;;17.45;10.88;;;;;;;21.82;66.43;98681.56;5118750;29;20095;-73
2022/06/30 05:56:20;;;;;;;12.48;10.48;;;;;;;21.80;66.20;98681.78;5121071;28;20102;-72
2022/06/30 05:59:10;;;;;;;15.50;10.20;;;;;;;21.87;66.37;98670.91;5121581;29;20055;-72
2022/06/30 06:02:01;;;;;;;14.50;10.13;;;;;;;21.99;65.91;98673.69;5120411;29;20058;-71
2022/06/30 06:04:51;;;;;;;16.90;11.18;;;;;;;22.13;66.13;98675.19;5121507;29;20054;-73
2022/06/30 06:07:43;;;;;;;14.05;10.75;;;;;;;22.26;65.12;98652.63;5124434;28;20122;-73
2022/06/30 06:10:34;;;;;;;16.05;10.95;;;;;;;22.16;65.02;98644.25;5111876;28;20086;-72
2022/06/30 06:13:24;;;;;;;18.88;11.65;;;;;;;22.40;64.86;98664.91;5126697;28;20414;-72
2022/06/30 06:16:14;;;;;;;17.67;12.18;;;;;;;22.46;64.74;98658.59;5130159;28;20050;-73
2022/06/30 06:19:04;;;;;;;20.90;11.88;;;;;;;22.63;65.29;98660.63;5101676;29;20118;-72
2022/06/30 06:21:54;;;;;;;21.60;12.10;;;;;;;22.73;64.35;98653.63;5100399;29;20063;-72
2022/06/30 06:24:45;;;;;;;17.30;11.70;;;;;;;23.10;63.83;98669.72;5102210;28;20059;-75
2022/06/30 06:27:35;;;;;;;13.80;10.25;;;;;;;23.10;63.62;98658.06;5099532;28;20414;-73
2022/06/30 06:30:25;;;;;;;15.15;10.57;;;;;;;23.40;62.20;98669.63;5105431;28;20090;-73
2022/06/30 06:33:15;;;;;;;14.35;10.82;;;;;;;23.36;63.19;98668.44;5117888;28;20073;-73
2022/06/30 06:36:06;;;;;;;12.85;8.93;;;;;;;23.48;62.09;98664.91;5114667;28;20678;-73
2022/06/30 06:38:57;;;;;;;19.40;9.65;;;;;;;23.66;61.98;98670.22;5125529;28;20067;-73
2022/06/30 06:41:48;;;;;;;13.35;9.32;;;;;;;23.72;61.52;98653.06;5111783;28;20154;-73
2022/06/30 06:44:38;;;;;;;11.45;9.27;;;;;;;23.82;61.25;98639.75;5114616;28;20081;-73
2022/06/30 06:47:28;;;;;;;13.95;8.13;;;;;;;24.16;60.94;98650.72;5117194;28;20066;-73
2022/06/30 06:50:18;;;;;;;12.18;9.00;;;;;;;24.18;59.56;98632.34;5126680;28;20182;-73
2022/06/30 06:53:08;;;;;;;14.30;8.05;;;;;;;24.61;59.84;98656.25;5104747;28;20516;-72
2022/06/30 06:55:59;;;;;;;13.98;7.80;;;;;;;25.36;56.44;98648.00;5109353;28;20206;-72
2022/06/30 06:58:49;;;;;;;8.73;7.75;;;;;;;26.60;53.14;98646.66;5108427;28;20074;-71
2022/06/30 07:01:41;;;;;;;10.57;7.88;;;;;;;27.07;51.90;98641.38;5113786;28;20116;-72
2022/06/30 07:04:32;;;;;;;11.13;6.25;;;;;;;27.37;51.88;98631.84;5111234;28;20806;-72
2022/06/30 07:07:22;;;;;;;16.25;7.22;;;;;;;28.44;48.57;98653.38;5108161;28;20067;-72
2022/06/30 07:10:14;;;;;;;8.07;6.65;;;;;;;29.11;47.28;98652.41;5112637;28;21235;-73
2022/06/30 07:13:04;;;;;;;11.63;6.55;;;;;;;29.26;47.02;98654.31;5108857;28;20134;-72
2022/06/30 07:15:55;;;;;;;9.05;6.13;;;;;;;29.87;47.29;98665.16;5122079;28;20038;-71
2022/06/30 07:18:45;;;;;;;8.98;6.00;;;;;;;29.72;46.25;98660.53;5119982;28;20058;-73
2022/06/30 07:21:36;;;;;;;11.80;6.25;;;;;;;30.15;44.84;98644.53;5111890;28;20101;-73
2022/06/30 07:24:26;;;;;;;9.55;5.18;;;;;;;30.99;43.01;98655.56;5121679;28;20451;-73
2022/06/30 07:27:16;;;;;;;10.82;5.57;;;;;;;31.15;42.49;98661.75;5108164;28;20095;-73
2022/06/30 07:30:07;;;;;;;9.25;5.70;;;;;;;31.30;42.57;98652.59;5107850;28;20232;-73
2022/06/30 07:32:58;;;;;;;7.25;4.93;;;;;;;31.71;45.19;98655.75;5106362;28;20055;-73
2022/06/30 07:35:48;;;;;;;8.13;5.13;;;;;;;31.63;41.59;98648.19;5106338;28;20205;-73
2022/06/30 07:38:43;;;;;;;12.38;5.20;;;;;;;31.98;43.40;98644.25;5106450;28;20067;-73
2022/06/30 07:41:32;;;;;;;8.15;4.53;;;;;;;32.78;40.86;98641.81;5111359;28;20329;-73
2022/06/30 07:44:23;;;;;;;7.93;4.90;;;;;;;32.72;40.61;98654.81;5115420;28;20178;-70
2022/06/30 07:47:14;;;;;;;5.90;4.55;;;;;;;32.83;40.41;98647.25;5121415;28;20093;-73
2022/06/30 07:50:06;;;;;;;7.47;4.47;;;;;;;32.91;40.65;98644.63;5111537;28;20051;-73
2022/06/30 07:52:56;;;;;;;6.75;3.65;;;;;;;33.12;39.90;98649.84;5112759;28;20553;-73
2022/06/30 07:55:46;;;;;;;8.55;4.45;;;;;;;33.42;40.29;98646.53;5104496;28;20095;-74
2022/06/30 07:58:37;;;;;;;5.68;4.25;;;;;;;33.44;37.77;98629.75;5110922;28;20458;-74
2022/06/30 08:01:27;;;;;;;6.55;3.70;;;;;;;33.61;38.49;98635.50;5105978;28;20089;-73
2022/06/30 08:04:17;;;;;;;7.13;3.90;;;;;;;34.01;37.20;98633.09;5117441;28;20089;-73
2022/06/30 08:07:08;;;;;;;5.68;3.78;;;;;;;33.98;39.02;98625.44;5116216;28;20109;-70
2022/06/30 08:09:59;;;;;;;7.13;4.03;;;;;;;34.14;38.69;98615.78;5109741;28;20537;-71
2022/06/30 08:12:50;;;;;;;3.85;3.03;;;;;;;33.93;34.89;98628.28;5110220;28;20054;-71
2022/06/30 08:15:41;;;;;;;8.45;3.70;;;;;;;33.60;36.25;98628.38;5114167;28;20055;-71
2022/06/30 08:18:31;;;;;;;5.65;3.00;;;;;;;33.89;35.84;98608.00;5127020;28;20082;-71
2022/06/30 08:21:21;;;;;;;7.13;3.05;;;;;;;33.83;35.35;98615.53;5108846;28;20258;-71
2022/06/30 08:24:12;;;;;;;4.80;3.15;;;;;;;33.57;35.01;98625.41;5107933;28;20453;-70
2022/06/30 08:27:03;;;;;;;8.23;3.20;;;;;;;34.27;35.34;98618.78;5103710;28;20498;-71
2022/06/30 08:29:53;;;;;;;6.93;3.55;;;;;;;34.82;33.89;98616.72;5111384;28;20047;-71
2022/06/30 08:32:44;;;;;;;9.20;3.40;;;;;;;34.11;37.51;98619.13;5109662;28;20066;-71
2022/06/30 08:35:35;;;;;;;5.70;2.92;;;;;;;35.29;35.11;98619.16;5114834;28;20066;-71
2022/06/30 08:38:45;;;;;;;8.52;3.70;;;;;;;35.16;36.16;98611.78;5107419;28;20101;-72
2022/06/30 08:45:13;;;;;;;7.22;3.67;;;;;;;34.98;34.03;98606.13;5107567;28;20301;-70
2022/06/30 08:47:56;;;;;;;6.50;3.17;;;;;;;35.32;35.33;98595.66;5109050;28;20113;-71
2022/06/30 08:50:48;;;;;;;6.82;3.53;;;;;;;35.39;33.63;98602.34;5107226;28;20051;-71
2022/06/30 08:54:00;;;;;;;7.43;3.60;;;;;;;35.84;34.91;98610.50;5127392;28;20555;-71
2022/06/30 08:56:53;;;;;;;5.28;3.65;;;;;;;35.54;32.97;98609.41;5119606;28;20820;-71
2022/06/30 08:59:44;;;;;;;6.85;3.10;;;;;;;35.88;35.38;98589.41;5116422;28;20101;-72
2022/06/30 09:02:34;;;;;;;5.28;3.80;;;;;;;35.92;35.60;98601.44;5118272;28;20073;-72
2022/06/30 09:05:24;;;;;;;7.22;3.50;;;;;;;35.84;33.54;98585.69;5112771;28;20520;-72
2022/06/30 09:08:17;;;;;;;7.30;3.03;;;;;;;35.24;32.19;98589.78;5110734;28;20051;-72
2022/06/30 09:11:13;;;;;;;4.30;3.08;;;;;;;34.91;34.58;98580.16;5107296;28;20058;-72
2022/06/30 09:14:04;;;;;;;6.32;3.47;;;;;;;34.80;34.16;98580.41;5111384;28;20116;-72
2022/06/30 09:16:54;;;;;;;5.10;3.40;;;;;;;35.36;32.01;98577.34;5105960;28;20483;-72
2022/06/30 09:20:05;;;;;;;4.13;3.13;;;;;;;35.64;32.05;98578.00;5112120;28;20061;-72
2022/06/30 09:22:56;;;;;;;3.88;3.00;;;;;;;35.94;32.22;98579.84;5100388;28;20066;-72
2022/06/30 09:25:49;;;;;;;9.23;3.10;;;;;;;35.31;32.46;98570.03;5102497;28;20780;-72
2022/06/30 09:28:51;;;;;;;5.85;3.25;;;;;;;35.65;33.95;98569.38;5105937;28;20221;-72
2022/06/30 09:32:01;;;;;;;8.65;3.28;;;;;;;36.30;32.67;98570.53;5111553;28;20066;-71
2022/06/30 09:34:52;;;;;;;6.72;3.03;;;;;;;36.52;31.50;98575.09;5105830;28;20055;-71
2022/06/30 09:37:43;;;;;;;4.90;2.85;;;;;;;36.21;31.39;98559.47;5113878;28;20540;-72
2022/06/30 09:41:00;;;;;;;2.95;2.30;;;;;;;36.33;30.66;98567.13;5107513;28;21641;-72
2022/06/30 09:43:50;;;;;;;3.90;2.17;;;;;;;36.55;28.88;98566.16;5117451;28;20066;-71
2022/06/30 09:47:01;;;;;;;8.02;3.00;;;;;;;36.22;29.17;98558.31;5112235;28;20047;-72
2022/06/30 09:49:52;;;;;;;5.03;3.10;;;;;;;36.44;29.73;98543.56;5110047;28;20472;-71
2022/06/30 09:52:43;;;;;;;4.85;2.75;;;;;;;36.25;30.85;98550.53;5112435;28;20059;-72
2022/06/30 09:55:47;;;;;;;4.72;2.53;;;;;;;36.66;28.92;98550.09;5108005;28;20054;-72
2022/06/30 09:58:41;;;;;;;7.38;2.58;;;;;;;36.69;28.73;98541.97;5112490;28;20140;-72
2022/06/30 10:01:50;;;;;;;5.35;2.60;;;;;;;36.69;30.67;98547.47;5110144;28;20058;-72
2022/06/30 10:04:57;;;;;;;4.25;2.63;;;;;;;35.33;31.53;98537.44;5109096;28;20055;-73
2022/06/30 10:07:48;;;;;;;6.38;3.10;;;;;;;35.59;33.77;98528.50;5110242;28;20234;-73
2022/06/30 10:10:40;;;;;;;4.80;2.65;;;;;;;35.15;31.33;98538.50;5109492;28;20047;-73
2022/06/30 10:13:35;;;;;;;4.68;2.92;;;;;;;35.73;31.32;98535.53;5109122;28;20054;-72
2022/06/30 10:16:26;;;;;;;6.55;2.90;;;;;;;34.13;33.38;98537.09;5113619;28;20148;-72
2022/06/30 10:19:17;;;;;;;7.35;2.72;;;;;;;35.30;33.55;98529.84;5119345;28;20066;-74
2022/06/30 10:22:08;;;;;;;6.53;3.08;;;;;;;34.97;34.03;98521.88;5118232;28;21369;-73
2022/06/30 10:24:58;;;;;;;6.72;2.80;;;;;;;35.08;31.11;98527.13;5120782;28;20055;-72
2022/06/30 10:27:50;;;;;;;8.73;2.88;;;;;;;34.91;30.91;98525.06;5108314;28;20051;-72
2022/06/30 10:30:46;;;;;;;5.80;3.58;;;;;;;35.49;30.24;98516.59;5123506;28;20058;-73
2022/06/30 10:34:06;;;;;;;10.38;2.50;;;;;;;35.67;31.53;98524.97;5109610;28;20421;-72
2022/06/30 10:37:03;;;;;;;4.28;2.75;;;;;;;36.22;30.07;98521.63;5109173;28;20043;-72
2022/06/30 10:40:00;;;;;;;7.15;2.47;;;;;;;35.85;32.58;98514.75;5109148;28;20059;-72
2022/06/30 10:42:56;;;;;;;3.70;2.45;;;;;;;35.38;29.48;98508.94;5105216;28;20102;-72
2022/06/30 10:45:56;;;;;;;4.50;2.47;;;;;;;35.34;31.04;98472.94;5112507;28;20061;-73
2022/06/30 10:48:53;;;;;;;7.15;2.70;;;;;;;36.24;32.59;98511.09;5105294;28;20123;-71
2022/06/30 10:51:45;;;;;;;6.03;2.40;;;;;;;36.28;30.04;98502.97;5104542;28;20186;-72
2022/06/30 10:54:35;;;;;;;2.97;2.25;;;;;;;36.07;30.79;98500.06;5121020;28;20433;-72
2022/06/30 10:57:25;;;;;;;6.70;2.35;;;;;;;36.19;31.11;98489.16;5104472;28;20082;-73
2022/06/30 11:00:41;;;;;;;4.90;2.35;;;;;;;35.79;27.99;98500.31;5109048;28;20070;-73
2022/06/30 11:03:35;;;;;;;4.35;2.58;;;;;;;35.86;29.83;98500.66;5109020;28;20055;-73
2022/06/30 11:06:58;;;;;;;3.83;2.40;;;;;;;34.96;28.33;98500.13;5118931;28;20082;-74
2022/06/30 11:09:48;;;;;;;5.00;2.45;;;;;;;35.21;31.70;98493.16;5117204;28;20585;-68
2022/06/30 11:12:41;;;;;;;11.18;2.50;;;;;;;35.02;29.02;98487.88;5115647;28;20525;-71
2022/06/30 11:15:49;;;;;;;3.92;2.40;;;;;;;35.34;28.30;98472.94;5120570;28;20398;-72
2022/06/30 11:18:40;;;;;;;5.10;2.22;;;;;;;35.42;30.46;98477.66;5116964;28;20081;-72
2022/06/30 11:21:31;;;;;;;4.53;2.60;;;;;;;35.68;28.49;98468.66;5113624;28;20478;-71
2022/06/30 11:24:23;;;;;;;4.65;2.45;;;;;;;35.34;28.83;98467.41;5104886;28;20099;-71
2022/06/30 11:27:22;;;;;;;7.38;2.50;;;;;;;35.17;29.95;98467.38;5109837;28;20109;-72
2022/06/30 11:30:12;;;;;;;5.35;2.53;;;;;;;35.37;30.88;98472.31;5106775;28;20129;-71
2022/06/30 11:33:03;;;;;;;5.95;2.50;;;;;;;35.59;29.55;98470.59;5108384;28;20073;-72
2022/06/30 11:36:04;;;;;;;10.05;3.00;;;;;;;35.15;29.22;98464.13;5102415;28;20055;-71
2022/06/30 11:38:56;;;;;;;3.45;2.33;;;;;;;35.09;29.57;98465.38;5103627;28;21478;-70
2022/06/30 11:41:59;;;;;;;5.03;2.17;;;;;;;34.19;29.68;98462.69;5112932;28;20055;-70
2022/06/30 11:44:50;;;;;;;5.55;2.55;;;;;;;33.78;29.18;98452.63;5117782;28;20070;-72
2022/06/30 11:47:41;;;;;;;3.65;2.38;;;;;;;34.19;29.84;98448.94;5114973;28;20062;-71
2022/06/30 11:50:40;;;;;;;7.85;2.58;;;;;;;34.45;31.60;98447.19;5119699;28;20572;-71
2022/06/30 11:53:30;;;;;;;9.05;2.70;;;;;;;34.34;30.67;98443.06;5114106;28;20273;-72
2022/06/30 11:56:20;;;;;;;4.38;2.80;;;;;;;33.84;30.64;98443.09;5108379;28;20058;-72
2022/06/30 11:59:17;;;;;;;3.28;2.30;;;;;;;34.18;29.87;98450.06;5105723;28;20051;-72
2022/06/30 12:02:08;;;;;;;3.88;2.53;;;;;;;34.22;30.90;98443.63;5117440;28;20047;-72
2022/06/30 12:05:00;;;;;;;7.03;2.22;;;;;;;34.50;30.05;98452.53;5115400;28;20067;-73
2022/06/30 12:07:51;;;;;;;4.47;2.33;;;;;;;33.82;30.22;98445.38;5109199;28;20137;-70
2022/06/30 12:10:44;;;;;;;5.75;2.92;;;;;;;34.07;30.55;98436.56;5121661;28;20437;-73
2022/06/30 12:13:34;;;;;;;3.67;2.75;;;;;;;34.23;29.24;98423.22;5112799;28;20054;-72
2022/06/30 12:16:25;;;;;;;6.57;2.70;;;;;;;34.00;30.31;98433.38;5122788;28;20059;-71
2022/06/30 12:19:15;;;;;;;5.03;2.60;;;;;;;34.12;29.14;98435.63;5105361;28;20062;-72
2022/06/30 12:22:08;;;;;;;3.03;2.25;;;;;;;33.78;30.81;98433.38;5100814;28;20098;-71
2022/06/30 12:24:59;;;;;;;9.07;2.47;;;;;;;33.75;29.08;98434.00;5100652;28;20066;-71
2022/06/30 12:27:51;;;;;;;6.60;2.78;;;;;;;33.60;30.11;98432.38;5105132;28;20058;-71
2022/06/30 12:30:41;;;;;;;4.90;3.55;;;;;;;33.53;31.64;98427.31;5120811;28;20144;-71
2022/06/30 12:33:39;;;;;;;6.38;2.80;;;;;;;33.56;30.82;98434.94;5109846;28;20066;-71
2022/06/30 12:36:33;;;;;;;7.90;2.65;;;;;;;33.44;32.31;98426.38;5115799;28;20614;-71
2022/06/30 12:39:23;;;;;;;8.07;2.83;;;;;;;33.83;32.50;98439.56;5117909;28;20047;-71
2022/06/30 12:42:14;;;;;;;7.05;2.80;;;;;;;34.21;29.86;98424.69;5119318;28;20128;-71
2022/06/30 12:45:04;;;;;;;4.15;2.45;;;;;;;33.62;29.84;98433.72;5112222;28;20058;-72
2022/06/30 12:47:55;;;;;;;4.15;2.60;;;;;;;33.61;32.88;98426.59;5114306;28;20047;-72
2022/06/30 12:50:45;;;;;;;4.30;2.50;;;;;;;33.54;33.11;98417.94;5103280;28;20118;-72
2022/06/30 12:53:36;;;;;;;3.55;2.40;;;;;;;33.49;29.67;98414.50;5095461;28;20121;-72
2022/06/30 12:56:27;;;;;;;4.53;2.78;;;;;;;33.61;31.57;98429.34;5113757;28;20157;-72
2022/06/30 12:59:20;;;;;;;6.57;2.78;;;;;;;33.38;31.05;98424.88;5095769;28;20073;-72
2022/06/30 13:02:14;;;;;;;3.95;2.47;;;;;;;33.35;31.90;98414.50;5110386;28;20106;-71
2022/06/30 13:05:11;;;;;;;7.55;2.80;;;;;;;33.29;31.76;98421.22;5121099;28;20572;-71
2022/06/30 13:08:01;;;;;;;9.98;3.22;;;;;;;33.15;31.17;98413.81;5137204;28;20055;-71
2022/06/30 13:11:07;;;;;;;6.80;2.65;;;;;;;33.15;31.47;98408.31;5120679;28;20051;-71
2022/06/30 13:13:59;;;;;;;3.45;2.47;;;;;;;32.77;30.99;98413.13;5121450;28;20058;-71
2022/06/30 13:16:50;;;;;;;6.55;2.88;;;;;;;32.75;31.08;98368.72;5119730;28;20058;-72
2022/06/30 13:19:41;;;;;;;12.10;2.92;;;;;;;33.29;31.93;98402.78;5115818;28;20323;-71
2022/06/30 13:22:31;;;;;;;3.85;2.70;;;;;;;32.62;30.10;98400.53;5111286;28;20216;-71
2022/06/30 13:25:21;;;;;;;4.35;2.67;;;;;;;32.83;31.61;98397.38;5108745;28;20165;-72
2022/06/30 13:28:12;;;;;;;8.05;3.00;;;;;;;33.18;30.76;98398.66;5105149;28;20058;-70
2022/06/30 13:31:03;;;;;;;2.88;2.25;;;;;;;33.34;29.36;98393.63;5103061;28;20074;-71
2022/06/30 13:33:54;;;;;;;4.47;2.80;;;;;;;33.24;29.87;98396.59;5084076;28;20379;-71
2022/06/30 13:36:44;;;;;;;5.78;2.90;;;;;;;33.14;28.64;98381.94;5108860;28;20129;-71